Time;durP1;ratioP1;P1;durP2;ratioP2;P2;SDS_P1;SDS_P2;PMS_P1;PMS_P2;Temp;Humidity;BMP_temperature;BMP_pressure;BME280_temperature;BME280_humidity;BME280_pressure;Samples;Min_cycle;Max_cycle;Signal;HPM_P1;HPM_P2
2022/01/18 00:04:31;;;;;;;2.25;1.45;;;;;;;1.33;76.44;97586.47;10352860;28;98722;-63
2022/01/18 00:09:38;;;;;;;2.80;1.88;;;;;;;1.32;75.86;97581.38;10340954;28;98759;-63
2022/01/18 00:14:43;;;;;;;2.63;1.60;;;;;;;1.30;76.18;97573.69;10347474;28;98890;-64
2022/01/18 00:19:54;;;;;;;2.25;1.40;;;;;;;1.27;75.64;97578.13;10343551;28;98604;-63
2022/01/18 00:24:59;;;;;;;1.80;1.35;;;;;;;1.30;76.47;97572.88;10344804;28;97814;-66
2022/01/18 00:30:14;;;;;;;3.03;1.63;;;;;;;1.32;75.88;97571.06;10351391;28;97320;-63
2022/01/18 00:35:18;;;;;;;2.13;1.50;;;;;;;1.36;76.00;97564.88;10344186;28;98234;-64
2022/01/18 00:40:22;;;;;;;2.67;1.52;;;;;;;1.48;74.92;97561.00;10345866;28;97639;-63
2022/01/18 00:45:25;;;;;;;2.38;1.88;;;;;;;1.41;75.15;97557.84;10340465;28;98389;-63
2022/01/18 00:50:32;;;;;;;2.40;1.70;;;;;;;1.29;74.75;97559.13;10343467;28;97833;-63
2022/01/18 00:55:46;;;;;;;2.75;1.90;;;;;;;1.27;74.56;97557.53;10348216;28;98361;-63
2022/01/18 01:00:51;;;;;;;2.00;1.57;;;;;;;1.26;74.72;97553.25;10351894;28;98083;-63
2022/01/18 01:05:55;;;;;;;2.80;2.10;;;;;;;1.25;74.92;97560.16;10342367;28;96960;-63
2022/01/18 01:10:58;;;;;;;3.35;2.20;;;;;;;1.25;74.74;97567.03;10350628;28;98393;-64
2022/01/18 01:16:14;;;;;;;2.35;1.80;;;;;;;1.25;74.82;97554.16;10343706;28;97648;-63
2022/01/18 01:32:19;;;;;;;2.88;2.20;;;;;;;1.24;74.30;97539.63;10346743;28;98948;-63
2022/01/18 01:42:58;;;;;;;3.35;2.00;;;;;;;1.26;73.73;97532.66;10342287;28;99792;-67
2022/01/18 01:48:04;;;;;;;2.33;1.73;;;;;;;1.26;73.28;97524.94;10342998;28;97129;-63
2022/01/18 01:53:09;;;;;;;2.57;1.60;;;;;;;1.29;73.65;97525.66;10354414;28;97538;-63
2022/01/18 01:58:12;;;;;;;2.60;1.23;;;;;;;1.32;72.87;97527.28;10347678;28;97604;-65
2022/01/18 02:03:15;;;;;;;1.60;1.40;;;;;;;1.34;73.12;97516.03;10347109;28;96880;-65
2022/01/18 02:08:21;;;;;;;1.75;1.23;;;;;;;1.33;73.68;97505.78;10353911;28;97751;-63
2022/01/18 02:13:24;;;;;;;2.55;1.30;;;;;;;1.26;73.41;97509.50;10349193;28;97180;-64
2022/01/18 02:23:50;;;;;;;1.42;1.00;;;;;;;1.09;73.93;97489.56;10344592;28;96960;-64
2022/01/18 02:28:52;;;;;;;1.08;0.90;;;;;;;1.04;74.04;97482.03;10342929;28;96987;-63
2022/01/18 02:33:55;;;;;;;1.10;0.82;;;;;;;0.99;73.78;97481.34;10346079;28;97842;-67
2022/01/18 02:39:00;;;;;;;1.45;0.90;;;;;;;0.96;74.29;97473.75;10347857;28;98304;-63
2022/01/18 02:44:05;;;;;;;1.67;1.13;;;;;;;0.94;74.13;97468.66;10339519;28;98924;-63
2022/01/18 02:49:08;;;;;;;1.77;1.23;;;;;;;0.89;74.07;97474.88;10346249;28;98947;-63
2022/01/18 02:54:14;;;;;;;2.13;1.10;;;;;;;0.81;74.06;97462.31;10343381;28;97723;-65
2022/01/18 02:59:29;;;;;;;2.17;0.90;;;;;;;0.72;74.28;97458.34;10343338;28;96916;-63
2022/01/18 03:04:33;;;;;;;2.03;1.35;;;;;;;0.65;74.84;97456.88;10348252;28;102994;-65
2022/01/18 03:09:37;;;;;;;1.50;1.10;;;;;;;0.63;74.30;97448.38;10354368;28;98722;-66
2022/01/18 03:14:40;;;;;;;1.83;1.30;;;;;;;0.59;74.98;97452.81;10349877;28;98130;-64
2022/01/18 03:19:43;;;;;;;2.78;1.40;;;;;;;0.56;75.08;97440.06;10352955;28;98591;-65
2022/01/18 03:24:58;;;;;;;1.70;1.25;;;;;;;0.57;74.85;97433.19;10343556;28;96980;-63
2022/01/18 03:30:02;;;;;;;1.57;1.20;;;;;;;0.57;74.52;97433.19;10352394;28;97176;-64
2022/01/18 03:35:07;;;;;;;1.98;1.48;;;;;;;0.60;74.57;97428.78;10344606;28;98154;-63
2022/01/18 03:40:12;;;;;;;1.73;1.25;;;;;;;0.61;74.81;97429.59;10334997;28;98558;-64
2022/01/18 03:45:17;;;;;;;2.07;1.20;;;;;;;0.64;75.06;97439.78;10346230;28;99940;-63
2022/01/18 03:50:20;;;;;;;2.08;1.25;;;;;;;0.68;74.75;97449.06;10342572;28;96893;-66
2022/01/18 03:55:24;;;;;;;2.67;1.42;;;;;;;0.72;74.47;97442.06;10341892;28;97002;-62
2022/01/18 04:00:29;;;;;;;2.83;1.70;;;;;;;0.73;74.54;97439.44;10341142;28;98424;-64
2022/01/18 04:05:32;;;;;;;2.05;1.40;;;;;;;0.73;74.01;97441.19;10344107;28;98320;-63
2022/01/18 04:10:36;;;;;;;3.33;1.67;;;;;;;0.72;74.64;97453.22;10337446;28;98463;-65
2022/01/18 04:15:39;;;;;;;3.10;1.88;;;;;;;0.72;74.06;97448.06;10339926;28;99836;-64
2022/01/18 04:26:52;;;;;;;5.00;2.38;;;;;;;0.71;74.87;97441.22;10339508;28;97069;-63
2022/01/18 04:31:28;;;;;;;2.97;1.90;;;;;;;0.67;75.06;97444.81;10341100;28;98753;-63
2022/01/18 04:36:31;;;;;;;3.13;2.17;;;;;;;0.67;74.99;97439.69;10350334;28;98540;-63
2022/01/18 04:41:35;;;;;;;3.08;2.05;;;;;;;0.67;74.88;97439.69;10347432;28;96973;-63
2022/01/18 04:51:59;;;;;;;2.85;2.30;;;;;;;0.71;75.30;97430.94;10342912;28;99874;-63
2022/01/18 05:02:24;;;;;;;3.38;2.10;;;;;;;0.69;74.74;97421.59;10337959;28;98348;-64
2022/01/18 05:07:27;;;;;;;3.47;2.10;;;;;;;0.73;75.03;97439.44;10337871;28;98959;-65
2022/01/18 05:12:41;;;;;;;3.58;2.33;;;;;;;0.72;74.76;97431.78;10338578;28;98384;-64
2022/01/18 05:18:12;;;;;;;3.90;2.47;;;;;;;0.72;75.14;97442.06;10363235;28;96939;-63
2022/01/18 05:23:07;;;;;;;3.08;2.05;;;;;;;0.67;74.62;97443.97;10357132;28;98326;-63
2022/01/18 05:28:12;;;;;;;3.75;2.47;;;;;;;0.60;75.33;97448.50;10350767;28;98678;-68
2022/01/18 05:33:15;;;;;;;3.72;2.55;;;;;;;0.53;75.19;97436.75;10362151;28;96878;-65
2022/01/18 05:38:17;;;;;;;3.22;2.33;;;;;;;0.49;75.54;97436.03;10349559;28;97576;-63
2022/01/18 05:43:22;;;;;;;3.38;2.42;;;;;;;0.47;75.50;97442.16;10345058;28;98496;-62
2022/01/18 05:48:25;;;;;;;3.83;2.60;;;;;;;0.47;75.78;97442.16;10345000;28;97014;-64
2022/01/18 05:53:31;;;;;;;3.50;2.50;;;;;;;0.42;76.19;97440.56;10349787;28;97436;-62
2022/01/18 05:58:35;;;;;;;4.05;2.58;;;;;;;0.48;75.83;97448.94;10345524;28;98096;-62
2022/01/18 06:04:04;;;;;;;4.17;2.83;;;;;;;0.48;76.00;97454.09;10342749;28;97834;-63
2022/01/18 06:09:02;;;;;;;4.05;2.65;;;;;;;0.48;76.31;97454.09;10353222;28;97684;-62
2022/01/18 06:14:06;;;;;;;3.95;2.83;;;;;;;0.50;76.03;97449.75;10346075;28;99807;-63
2022/01/18 06:19:09;;;;;;;3.90;2.70;;;;;;;0.50;76.39;97462.59;10350665;28;98748;-63
2022/01/18 06:24:12;;;;;;;4.50;2.83;;;;;;;0.48;76.27;97460.09;10348824;28;98139;-64
2022/01/18 06:29:37;;;;;;;5.57;3.35;;;;;;;0.45;76.08;97474.78;10352520;28;98253;-62
2022/01/18 06:34:40;;;;;;;5.65;3.10;;;;;;;0.34;76.35;97470.88;10349396;28;100260;-63
2022/01/18 06:39:43;;;;;;;4.72;3.22;;;;;;;0.24;76.55;97483.19;10345019;28;96968;-62
2022/01/18 06:44:47;;;;;;;5.13;3.70;;;;;;;0.13;76.45;97489.59;10340915;28;98442;-62
2022/01/18 06:49:50;;;;;;;5.63;3.95;;;;;;;0.03;76.90;97495.06;10358618;28;98433;-62
2022/01/18 06:54:53;;;;;;;5.47;3.63;;;;;;;-0.03;77.08;97497.81;10343332;28;97305;-64
2022/01/18 06:59:58;;;;;;;6.30;4.28;;;;;;;-0.16;77.13;97499.13;10354719;28;98901;-63
2022/01/18 07:05:01;;;;;;;5.70;4.10;;;;;;;-0.33;76.99;97497.94;10343137;28;100128;-63
2022/01/18 07:10:04;;;;;;;6.53;4.07;;;;;;;-0.46;77.40;97501.78;10350053;28;100910;-62
2022/01/18 07:15:10;;;;;;;6.72;4.53;;;;;;;-0.58;77.92;97497.03;10365377;28;96722;-63
2022/01/18 07:20:13;;;;;;;;;;;;;;;-0.66;78.11;97512.69;10355435;28;98888;-64
2022/01/18 07:25:17;;;;;;;7.22;4.95;;;;;;;-0.73;78.09;97512.03;10357145;28;98762;-62
2022/01/18 07:30:22;;;;;;;6.23;4.17;;;;;;;-0.75;77.99;97521.50;10352824;28;97324;-62
2022/01/18 07:35:26;;;;;;;7.45;4.88;;;;;;;-0.82;78.32;97508.91;10352495;28;96802;-62
2022/01/18 07:40:31;;;;;;;8.05;5.00;;;;;;;-0.87;78.58;97511.63;10345583;28;99049;-64
2022/01/18 07:45:35;;;;;;;6.90;4.10;;;;;;;-0.91;78.68;97520.28;10362804;28;96894;-62
2022/01/18 07:50:38;;;;;;;10.63;5.90;;;;;;;-0.92;79.03;97526.31;10367091;28;98485;-62
2022/01/18 07:55:41;;;;;;;8.75;5.72;;;;;;;-0.90;78.65;97522.81;10350723;28;97668;-62
2022/01/18 08:00:47;;;;;;;9.70;5.60;;;;;;;-0.91;79.43;97520.28;10364457;28;98985;-62
2022/01/18 08:05:52;;;;;;;7.10;5.10;;;;;;;-0.86;79.37;97523.56;10358384;28;97018;-62
2022/01/18 08:10:55;;;;;;;7.75;5.22;;;;;;;-0.82;79.16;97535.41;10355108;28;97458;-64
2022/01/18 08:16:20;;;;;;;8.15;4.60;;;;;;;-0.75;79.35;97529.22;10348419;28;98936;-62
2022/01/18 08:21:23;;;;;;;9.60;5.20;;;;;;;-0.69;79.26;97537.63;10339351;28;97968;-62
2022/01/18 08:26:26;;;;;;;8.65;5.32;;;;;;;-0.64;79.20;97538.31;10361108;28;97028;-64
2022/01/18 08:31:30;;;;;;;9.32;6.32;;;;;;;-0.67;79.56;97543.53;10371842;28;97195;-61
2022/01/18 08:36:34;;;;;;;14.03;7.77;;;;;;;-0.61;79.52;97538.22;10369361;27;97256;-62
2022/01/18 08:41:37;;;;;;;15.00;9.95;;;;;;;-0.54;79.62;97542.28;10355078;28;97316;-64
2022/01/18 08:46:41;;;;;;;22.52;13.77;;;;;;;-0.50;79.91;97541.28;10337908;28;96972;-62
2022/01/18 08:51:46;;;;;;;12.93;8.47;;;;;;;-0.39;79.82;97536.66;10354713;28;97174;-63
2022/01/18 08:56:48;;;;;;;14.07;9.35;;;;;;;-0.25;79.51;97543.94;10379052;28;96768;-62
2022/01/18 09:01:59;;;;;;;15.82;9.70;;;;;;;-0.07;79.75;97545.06;10359128;28;97242;-63
2022/01/18 09:07:08;;;;;;;15.15;9.80;;;;;;;0.13;79.96;97556.41;10373130;28;96682;-62
2022/01/18 09:12:15;;;;;;;15.40;9.35;;;;;;;0.26;79.97;97556.84;10391264;28;97012;-62
2022/01/18 09:17:19;;;;;;;14.32;8.68;;;;;;;0.56;80.02;97567.78;10368645;28;96877;-62
2022/01/18 09:22:22;;;;;;;13.18;8.02;;;;;;;0.85;79.71;97563.38;10373946;28;97525;-63
2022/01/18 09:27:25;;;;;;;12.52;8.50;;;;;;;1.07;79.79;97569.41;10355706;28;100884;-62
2022/01/18 09:32:30;;;;;;;12.07;7.53;;;;;;;1.26;79.29;97563.56;10376083;28;96851;-63
2022/01/18 09:37:33;;;;;;;11.68;8.23;;;;;;;1.34;79.89;97577.00;10372709;28;97085;-63
2022/01/18 09:42:39;;;;;;;14.00;8.55;;;;;;;1.33;80.02;97568.44;10383743;28;101334;-63
2022/01/18 09:47:47;;;;;;;12.80;7.93;;;;;;;1.30;79.94;97576.25;10380994;28;97043;-62
2022/01/18 09:52:54;;;;;;;14.43;8.70;;;;;;;1.29;79.54;97577.16;10363111;28;96879;-64
2022/01/18 09:57:58;;;;;;;12.55;8.10;;;;;;;1.27;79.55;97578.13;10356226;28;98896;-64
2022/01/18 10:03:02;;;;;;;11.83;7.67;;;;;;;1.26;79.92;97584.16;10371230;27;98718;-63
2022/01/18 10:08:09;;;;;;;14.05;9.23;;;;;;;1.26;79.18;97579.00;10364490;28;97350;-62
2022/01/18 10:13:18;;;;;;;11.93;7.80;;;;;;;1.30;79.37;97585.72;10362681;28;96960;-62
2022/01/18 10:18:34;;;;;;;12.30;8.18;;;;;;;1.32;79.79;97586.50;10364927;28;98238;-63
2022/01/18 10:23:37;;;;;;;13.30;7.68;;;;;;;1.39;80.23;97580.22;10360834;28;97033;-63
2022/01/18 10:28:40;;;;;;;11.00;7.80;;;;;;;1.58;80.12;97576.97;10350816;28;97046;-64
2022/01/18 10:33:57;;;;;;;12.13;7.43;;;;;;;1.75;79.81;97577.97;10378702;28;96857;-62
2022/01/18 10:39:02;;;;;;;12.38;8.32;;;;;;;1.93;79.98;97571.22;10382534;28;97216;-62
2022/01/18 10:44:24;;;;;;;13.00;8.00;;;;;;;2.08;79.68;97567.22;10388136;28;96919;-69
2022/01/18 10:49:33;;;;;;;10.43;7.13;;;;;;;2.24;79.41;97562.25;10373132;28;97117;-68
2022/01/18 10:54:42;;;;;;;11.25;7.82;;;;;;;2.26;79.93;97555.28;10384041;28;97177;-62
2022/01/18 10:59:45;;;;;;;11.43;8.18;;;;;;;2.36;79.33;97542.84;10376244;28;97038;-64
2022/01/18 11:04:51;;;;;;;12.65;8.15;;;;;;;2.47;79.41;97544.97;10357526;28;98470;-62
2022/01/18 11:09:55;;;;;;;11.32;7.97;;;;;;;2.64;79.91;97545.09;10359658;28;97292;-62
2022/01/18 11:15:05;;;;;;;12.73;8.15;;;;;;;2.69;79.15;97537.97;10363050;28;97326;-63
2022/01/18 11:20:10;;;;;;;12.07;7.60;;;;;;;2.65;78.63;97536.44;10358309;28;98281;-64
2022/01/18 11:25:13;;;;;;;10.80;7.88;;;;;;;2.60;78.83;97529.81;10371064;28;97010;-65
2022/01/18 11:30:17;;;;;;;10.20;7.55;;;;;;;2.67;79.35;97532.06;10368262;28;97664;-62
2022/01/18 11:35:27;;;;;;;11.55;7.82;;;;;;;2.78;79.01;97534.16;10367162;28;97854;-63
2022/01/18 11:40:45;;;;;;;11.23;7.65;;;;;;;3.00;78.66;97526.31;10366682;28;97365;-65
2022/01/18 11:45:48;;;;;;;11.10;7.38;;;;;;;3.20;78.41;97527.13;10371226;28;96735;-66
2022/01/18 11:51:05;;;;;;;13.20;8.38;;;;;;;3.49;77.75;97512.88;10365084;28;97172;-63
2022/01/18 11:56:12;;;;;;;10.35;7.20;;;;;;;3.63;77.28;97519.97;10368545;28;96718;-64
2022/01/18 12:01:17;;;;;;;12.68;8.13;;;;;;;3.67;77.24;97518.88;10366523;28;97936;-63
2022/01/18 12:06:43;;;;;;;;;;;;;;;3.63;77.26;97510.44;10362142;28;97271;-63
2022/01/18 12:11:47;;;;;;;9.93;7.25;;;;;;;3.70;78.00;97516.16;10363162;28;96712;-63
2022/01/18 12:16:50;;;;;;;12.73;8.07;;;;;;;3.90;77.27;97517.81;10362333;28;96962;-64
2022/01/18 12:21:58;;;;;;;9.77;6.90;;;;;;;4.07;76.65;97519.53;10364698;28;96895;-63
2022/01/18 12:27:27;;;;;;;11.85;8.20;;;;;;;4.14;75.32;97505.41;10371310;27;96915;-63
2022/01/18 12:32:56;;;;;;;9.48;7.07;;;;;;;4.23;76.07;97503.25;10374467;28;96781;-64
2022/01/18 12:38:01;;;;;;;10.10;7.03;;;;;;;4.35;75.15;97507.81;10366644;28;98679;-63
2022/01/18 12:48:40;;;;;;;10.10;7.55;;;;;;;4.50;74.22;97501.84;10381843;28;97629;-63
2022/01/18 12:53:49;;;;;;;10.82;7.35;;;;;;;4.53;73.76;97499.09;10365991;28;97056;-65
2022/01/18 12:58:52;;;;;;;9.70;6.78;;;;;;;4.55;73.48;97493.84;10384092;28;98135;-63
2022/01/18 13:03:56;;;;;;;9.25;6.18;;;;;;;4.58;73.27;97494.53;10357495;28;101961;-64
2022/01/18 13:09:01;;;;;;;9.90;7.15;;;;;;;4.54;72.61;97492.16;10365898;28;102600;-63
2022/01/18 13:14:09;;;;;;;9.02;7.07;;;;;;;4.57;72.80;97498.03;10348914;28;98284;-64
2022/01/18 13:30:09;;;;;;;10.25;7.28;;;;;;;4.64;71.36;97493.38;10366006;28;101250;-65
2022/01/18 13:35:20;;;;;;;12.63;8.13;;;;;;;4.61;71.17;97490.97;10374805;27;98616;-63
2022/01/18 13:40:26;;;;;;;10.05;7.07;;;;;;;4.59;71.14;97490.19;10368631;28;97701;-65
2022/01/18 13:45:30;;;;;;;11.15;7.85;;;;;;;4.48;70.95;97490.75;10372127;28;97122;-63
2022/01/18 13:50:40;;;;;;;11.00;8.50;;;;;;;4.45;70.77;97501.25;10365390;28;97345;-64
2022/01/18 13:55:50;;;;;;;9.57;7.25;;;;;;;4.34;70.86;97495.81;10363391;28;98367;-64
2022/01/18 14:01:05;;;;;;;9.73;7.55;;;;;;;4.18;70.91;97495.75;10375407;28;97392;-64
2022/01/18 14:06:11;;;;;;;9.57;7.28;;;;;;;4.13;70.72;97495.13;10380610;28;97259;-63
2022/01/18 14:11:19;;;;;;;10.82;7.32;;;;;;;4.05;70.45;97499.84;10375359;28;97497;-65
2022/01/18 14:16:25;;;;;;;10.93;7.55;;;;;;;3.97;70.30;97497.66;10365826;28;98418;-63
2022/01/18 14:21:32;;;;;;;;;;;;;;;3.97;70.58;97508.00;10375856;28;98727;-64
2022/01/18 14:26:36;;;;;;;10.23;7.35;;;;;;;4.02;70.63;97498.22;10380182;28;98309;-64
2022/01/18 14:31:39;;;;;;;8.63;6.37;;;;;;;4.00;70.67;97503.50;10375404;27;97320;-63
2022/01/18 14:36:53;;;;;;;9.15;7.05;;;;;;;3.90;70.37;97506.59;10385777;28;97867;-64
2022/01/18 14:42:00;;;;;;;8.77;6.60;;;;;;;3.85;70.51;97513.75;10376106;28;98462;-64
2022/01/18 14:52:21;;;;;;;10.23;7.13;;;;;;;3.93;70.25;97511.63;10357105;28;96949;-64
2022/01/18 14:57:26;;;;;;;10.13;7.35;;;;;;;3.92;70.25;97513.38;10364107;27;98140;-63
2022/01/18 15:02:33;;;;;;;9.60;7.00;;;;;;;3.85;69.88;97506.84;10357833;28;97959;-63
2022/01/18 15:07:42;;;;;;;8.98;6.85;;;;;;;3.74;70.26;97503.94;10356490;28;101157;-67
2022/01/18 15:12:48;;;;;;;9.48;7.10;;;;;;;3.73;70.38;97510.03;10367907;28;99092;-64
2022/01/18 15:17:51;;;;;;;;;;;;;;;3.81;70.45;97513.91;10364428;28;97883;-64
2022/01/18 15:22:55;;;;;;;10.43;7.30;;;;;;;3.80;70.29;97512.22;10360502;28;97432;-63
2022/01/18 15:28:19;;;;;;;11.80;7.10;;;;;;;3.68;70.39;97512.81;10362316;28;98677;-63
2022/01/18 15:33:22;;;;;;;10.20;7.43;;;;;;;3.53;70.45;97508.38;10364958;28;97632;-65
2022/01/18 15:38:25;;;;;;;8.85;7.00;;;;;;;3.48;70.35;97510.34;10364716;28;96853;-64
2022/01/18 15:43:29;;;;;;;9.45;7.32;;;;;;;3.48;70.05;97511.19;10366746;28;96926;-64
2022/01/18 15:48:34;;;;;;;10.63;6.55;;;;;;;3.38;69.85;97509.97;10355275;28;96785;-64
2022/01/18 15:53:38;;;;;;;10.30;7.30;;;;;;;3.15;70.95;97518.75;10375546;28;97254;-64
2022/01/18 15:58:42;;;;;;;11.07;7.72;;;;;;;3.11;70.51;97527.56;10369049;28;97261;-63
2022/01/18 16:03:45;;;;;;;11.07;7.22;;;;;;;3.00;70.92;97525.47;10366611;28;96799;-64
2022/01/18 16:08:49;;;;;;;9.73;7.47;;;;;;;2.89;71.00;97538.84;10377954;27;96778;-63
2022/01/18 16:13:53;;;;;;;11.73;7.47;;;;;;;2.79;70.75;97538.44;10381522;28;97334;-64
2022/01/18 16:18:56;;;;;;;12.05;8.05;;;;;;;2.75;71.51;97536.88;10347717;28;98308;-63
2022/01/18 16:24:02;;;;;;;10.45;7.60;;;;;;;2.66;71.29;97543.28;10357220;28;96956;-63
2022/01/18 16:29:06;;;;;;;10.90;8.18;;;;;;;2.67;71.51;97555.28;10353225;28;98214;-64
2022/01/18 16:34:09;;;;;;;12.13;8.43;;;;;;;2.63;71.21;97555.47;10372708;28;96847;-63
2022/01/18 16:39:13;;;;;;;11.73;8.05;;;;;;;2.55;71.27;97557.56;10351752;28;96833;-64
2022/01/18 16:44:17;;;;;;;12.00;8.00;;;;;;;2.55;71.60;97565.31;10381109;28;97949;-63
2022/01/18 16:49:21;;;;;;;10.63;8.03;;;;;;;2.49;70.80;97566.38;10377007;28;100657;-62
2022/01/18 16:54:25;;;;;;;11.55;8.18;;;;;;;2.39;72.20;97572.81;10377699;28;97050;-63
2022/01/18 16:59:30;;;;;;;;;;;;;;;2.36;71.84;97575.56;10381069;28;97161;-64
2022/01/18 17:04:33;;;;;;;11.23;8.70;;;;;;;2.35;72.37;97579.84;10367343;28;96841;-63
2022/01/18 17:09:36;;;;;;;14.13;9.40;;;;;;;2.36;71.85;97576.38;10356612;28;96924;-62
2022/01/18 17:14:40;;;;;;;12.57;8.88;;;;;;;2.29;72.12;97586.09;10375688;28;98501;-66
2022/01/18 17:19:44;;;;;;;13.63;9.47;;;;;;;2.28;71.48;97592.16;10373249;27;98386;-63
2022/01/18 17:24:46;;;;;;;13.75;9.52;;;;;;;2.30;72.08;97592.97;10390585;28;97198;-63
2022/01/18 17:29:51;;;;;;;13.35;8.65;;;;;;;2.22;72.79;97587.28;10367090;28;98315;-64
2022/01/18 17:34:54;;;;;;;12.17;8.50;;;;;;;2.17;72.34;97596.09;10374459;28;97517;-63
2022/01/18 17:39:57;;;;;;;11.57;8.55;;;;;;;2.17;72.39;97596.94;10373116;28;97003;-63
2022/01/18 17:45:01;;;;;;;11.77;8.35;;;;;;;2.09;72.23;97594.69;10376522;28;97171;-64
2022/01/18 17:50:05;;;;;;;13.63;9.57;;;;;;;2.15;72.60;97593.59;10374715;28;97356;-63
2022/01/18 17:55:09;;;;;;;13.88;10.07;;;;;;;2.28;72.24;97599.06;10364437;28;97071;-64
2022/01/18 18:00:15;;;;;;;13.57;9.43;;;;;;;2.33;72.20;97591.16;10346691;28;96796;-66
2022/01/18 18:05:17;;;;;;;12.73;9.50;;;;;;;2.22;72.36;97595.00;10377168;28;97673;-65
2022/01/18 18:10:20;;;;;;;18.55;12.20;;;;;;;2.18;72.37;97598.63;10361115;28;97211;-63
2022/01/18 18:15:25;;;;;;;14.48;9.98;;;;;;;2.21;72.26;97598.47;10363968;28;98422;-64
2022/01/18 18:20:31;;;;;;;22.58;12.40;;;;;;;2.23;72.26;97604.44;10364452;28;97310;-66
2022/01/18 18:25:34;;;;;;;14.02;9.95;;;;;;;2.23;71.92;97596.69;10349594;28;98416;-67
2022/01/18 18:30:39;;;;;;;15.82;10.07;;;;;;;2.25;72.08;97594.03;10355451;28;98578;-64
2022/01/18 18:35:57;;;;;;;14.73;9.52;;;;;;;2.25;71.07;97594.88;10356575;28;97235;-63
2022/01/18 18:41:02;;;;;;;14.13;10.18;;;;;;;2.29;71.90;97586.09;10370637;28;97127;-67
2022/01/18 18:46:08;;;;;;;14.73;10.65;;;;;;;2.30;71.46;97592.97;10349084;28;97321;-63
2022/01/18 18:51:11;;;;;;;15.05;10.88;;;;;;;2.31;71.54;97594.63;10352566;28;100302;-64
2022/01/18 18:56:14;;;;;;;13.38;10.05;;;;;;;2.35;70.93;97591.91;10345845;28;100093;-64
2022/01/18 19:01:28;;;;;;;17.55;12.07;;;;;;;2.25;71.00;97584.56;10347735;28;99907;-63
2022/01/18 19:06:31;;;;;;;15.32;10.43;;;;;;;2.23;71.34;97570.06;10344662;28;99585;-63
2022/01/18 19:11:34;;;;;;;15.38;11.35;;;;;;;2.24;71.95;97567.41;10343681;28;98005;-63
2022/01/18 19:16:38;;;;;;;14.38;10.55;;;;;;;2.21;71.92;97577.84;10346950;28;100364;-64
2022/01/18 19:21:43;;;;;;;15.00;11.03;;;;;;;2.10;71.86;97600.66;10347806;28;98075;-63
2022/01/18 19:26:46;;;;;;;17.63;11.20;;;;;;;2.10;71.65;97610.97;10349944;28;97123;-63
2022/01/18 19:31:51;;;;;;;16.17;10.27;;;;;;;1.96;71.84;97618.44;10349070;28;98579;-64
2022/01/18 19:36:53;;;;;;;16.02;10.27;;;;;;;1.92;72.25;97623.69;10343859;28;99558;-63
2022/01/18 19:41:59;;;;;;;15.15;10.68;;;;;;;1.86;71.84;97621.34;10348449;28;97439;-62
2022/01/18 19:47:04;;;;;;;20.33;13.45;;;;;;;1.87;72.13;97620.47;10347715;28;97235;-66
2022/01/18 19:52:07;;;;;;;19.33;12.35;;;;;;;1.91;72.69;97623.75;10345013;28;100288;-64
2022/01/18 19:57:11;;;;;;;17.80;12.48;;;;;;;2.00;72.48;97625.13;10346322;28;98000;-64
2022/01/18 20:02:16;;;;;;;17.67;12.23;;;;;;;2.04;72.57;97621.50;10340028;28;97331;-63
2022/01/18 20:07:20;;;;;;;22.33;14.07;;;;;;;1.83;72.54;97616.31;10344287;28;100198;-64
2022/01/18 20:12:23;;;;;;;21.80;13.90;;;;;;;1.85;72.63;97617.09;10346951;28;98002;-62
2022/01/18 20:17:28;;;;;;;17.55;11.65;;;;;;;1.84;72.41;97612.84;10350223;28;99360;-64
2022/01/18 20:22:32;;;;;;;23.40;15.38;;;;;;;1.64;73.38;97610.19;10337353;28;99497;-66
2022/01/18 20:27:39;;;;;;;24.17;16.57;;;;;;;1.62;73.19;97609.41;10345539;28;97619;-63
2022/01/18 20:32:46;;;;;;;22.33;15.40;;;;;;;1.57;73.54;97607.00;10341765;28;97286;-64
2022/01/18 20:37:51;;;;;;;17.40;13.50;;;;;;;1.48;73.63;97602.22;10345858;28;100231;-64
2022/01/18 20:48:17;;;;;;;21.67;14.63;;;;;;;1.56;73.20;97600.19;10355115;28;97204;-64
2022/01/18 20:53:20;;;;;;;20.70;14.45;;;;;;;1.59;72.94;97601.81;10348028;28;97493;-64
2022/01/18 20:58:24;;;;;;;21.83;13.38;;;;;;;1.57;73.44;97601.84;10352006;28;97006;-63
2022/01/18 21:03:28;;;;;;;20.35;13.68;;;;;;;1.53;74.07;97598.56;10351428;28;98312;-63
2022/01/18 21:08:31;;;;;;;21.20;13.10;;;;;;;1.58;73.54;97593.25;10345241;28;99362;-65
2022/01/18 21:13:34;;;;;;;17.85;12.38;;;;;;;1.58;73.04;97589.84;10355166;28;98431;-64
2022/01/18 21:18:38;;;;;;;18.23;11.57;;;;;;;1.62;73.14;97583.66;10351914;28;97556;-63
2022/01/18 21:23:41;;;;;;;18.30;12.43;;;;;;;1.47;73.64;97556.75;10345360;28;97312;-64
2022/01/18 21:28:44;;;;;;;16.92;11.18;;;;;;;1.47;73.36;97537.00;10351058;28;97942;-63
2022/01/18 21:33:48;;;;;;;15.50;10.90;;;;;;;1.51;73.45;97523.09;10353497;28;97460;-62
2022/01/18 21:38:52;;;;;;;15.73;11.10;;;;;;;1.60;73.47;97539.94;10351975;28;98330;-68
2022/01/18 21:43:57;;;;;;;17.63;11.32;;;;;;;1.62;73.10;97553.56;10351184;28;97249;-65
2022/01/18 21:49:03;;;;;;;15.40;11.05;;;;;;;1.61;74.26;97575.09;10349408;28;99681;-65
2022/01/18 21:54:09;;;;;;;13.25;10.00;;;;;;;1.50;73.72;97585.78;10350370;28;97733;-64
2022/01/18 21:59:11;;;;;;;;;;;;;;;1.42;74.65;97593.00;10345822;28;100260;-65
2022/01/18 22:04:16;;;;;;;30.92;19.00;;;;;;;1.48;74.18;97589.34;10348811;28;99477;-65
2022/01/18 22:09:20;;;;;;;15.57;11.17;;;;;;;1.50;73.54;97585.78;10349839;28;98504;-65
2022/01/18 22:14:22;;;;;;;27.23;17.85;;;;;;;1.51;74.05;97577.19;10357940;28;99716;-62
2022/01/18 22:19:27;;;;;;;18.90;12.98;;;;;;;1.56;73.49;97575.28;10344775;28;99635;-63
2022/01/18 22:24:30;;;;;;;25.63;19.50;;;;;;;1.60;73.76;97586.28;10349572;28;99688;-63
2022/01/18 22:29:33;;;;;;;27.38;17.10;;;;;;;1.68;73.91;97573.13;10353216;28;100341;-64
2022/01/18 22:34:37;;;;;;;33.88;22.77;;;;;;;1.56;74.46;97564.13;10345627;28;100515;-65
2022/01/18 22:39:41;;;;;;;30.17;19.98;;;;;;;1.49;73.95;97565.28;10349397;28;98299;-64
2022/01/18 22:44:44;;;;;;;25.88;16.73;;;;;;;1.48;74.13;97564.41;10349139;28;97967;-63
2022/01/18 22:49:49;;;;;;;24.55;15.32;;;;;;;1.51;73.94;97561.72;10352519;28;98708;-63
2022/01/18 22:54:52;;;;;;;12.93;8.70;;;;;;;1.45;73.49;97567.13;10352122;28;100250;-62
2022/01/18 22:59:54;;;;;;;23.55;14.73;;;;;;;1.11;75.05;97557.25;10353981;28;99574;-62
2022/01/18 23:04:59;;;;;;;34.60;19.50;;;;;;;1.05;75.06;97558.31;10348916;28;100296;-63
2022/01/18 23:10:02;;;;;;;25.63;15.57;;;;;;;1.14;74.81;97547.69;10344078;28;97143;-63
2022/01/18 23:15:06;;;;;;;23.80;15.82;;;;;;;1.15;74.70;97544.19;10354791;28;99726;-63
2022/01/18 23:20:12;;;;;;;24.48;14.60;;;;;;;0.90;74.94;97538.31;10343344;28;99297;-63
2022/01/18 23:25:14;;;;;;;22.38;13.32;;;;;;;0.78;75.79;97535.28;10341084;28;97599;-64
2022/01/18 23:30:17;;;;;;;17.48;11.20;;;;;;;0.80;75.17;97537.78;10347913;28;98677;-63
2022/01/18 23:35:22;;;;;;;17.15;10.73;;;;;;;0.79;74.89;97541.25;10350636;28;98336;-65
2022/01/18 23:45:46;;;;;;;16.20;11.00;;;;;;;0.68;75.03;97553.66;10343997;28;98282;-63
2022/01/18 23:50:52;;;;;;;21.50;12.73;;;;;;;0.65;75.65;97558.91;10339492;28;99681;-61
2022/01/18 23:55:57;;;;;;;18.80;12.32;;;;;;;0.55;75.73;97555.81;10344118;28;97868;-60
